Time;durP1;ratioP1;P1;durP2;ratioP2;P2;SDS_P1;SDS_P2;PMS_P1;PMS_P2;Temp;Humidity;BMP_temperature;BMP_pressure;BME280_temperature;BME280_humidity;BME280_pressure;Samples;Min_cycle;Max_cycle;Signal;HPM_P1;HPM_P2
2022/03/11 00:02:26;;;;;;;;;;;9.00;61.00;;;;;;5092144;28;19933;-89
2022/03/11 00:04:53;;;;;;;;;;;9.00;61.00;;;;;;5088601;28;19967;-89
2022/03/11 00:07:20;;;;;;;;;;;9.00;61.10;;;;;;5090970;28;19923;-89
2022/03/11 00:09:47;;;;;;;;;;;9.00;61.20;;;;;;5090976;28;19927;-89
2022/03/11 00:12:13;;;;;;;;;;;8.90;61.30;;;;;;5090779;28;19932;-89
2022/03/11 00:14:41;;;;;;;;;;;8.90;61.40;;;;;;5092419;28;19927;-89
2022/03/11 00:17:08;;;;;;;;;;;8.90;61.40;;;;;;5091705;28;19927;-89
2022/03/11 00:19:35;;;;;;;;;;;8.90;61.50;;;;;;5090834;28;19920;-90
2022/03/11 00:22:02;;;;;;;;;;;8.90;61.60;;;;;;5088815;28;19981;-89
2022/03/11 00:24:29;;;;;;;;;;;8.90;61.70;;;;;;5091007;28;21819;-89
2022/03/11 00:26:56;;;;;;;;;;;8.80;61.80;;;;;;5089828;28;19927;-89
2022/03/11 00:29:23;;;;;;;;;;;8.80;61.90;;;;;;5092685;28;19977;-90
2022/03/11 00:31:50;;;;;;;;;;;8.80;62.00;;;;;;5090745;28;19924;-90
2022/03/11 00:34:17;;;;;;;;;;;8.70;62.10;;;;;;5090782;28;19925;-89
2022/03/11 00:36:44;;;;;;;;;;;8.70;62.20;;;;;;5090699;28;19920;-89
2022/03/11 00:39:11;;;;;;;;;;;8.70;62.20;;;;;;5090771;28;19924;-89
2022/03/11 00:41:38;;;;;;;;;;;8.70;62.30;;;;;;5091311;28;19928;-88
2022/03/11 00:44:05;;;;;;;;;;;8.60;62.40;;;;;;5091235;28;19927;-89
2022/03/11 00:46:32;;;;;;;;;;;8.60;62.50;;;;;;5090624;28;19965;-90
2022/03/11 00:48:59;;;;;;;;;;;8.60;62.60;;;;;;5090600;28;20378;-89
2022/03/11 00:51:26;;;;;;;;;;;8.60;62.60;;;;;;5088944;28;20386;-89
2022/03/11 00:53:53;;;;;;;;;;;8.60;62.70;;;;;;5092050;28;20331;-89
2022/03/11 00:56:19;;;;;;;;;;;8.50;62.70;;;;;;5090240;28;20516;-89
2022/03/11 00:58:46;;;;;;;;;;;8.50;62.80;;;;;;5090471;28;19924;-90
2022/03/11 01:01:13;;;;;;;;;;;8.50;62.90;;;;;;5090385;28;19920;-89
2022/03/11 01:03:40;;;;;;;;;;;8.50;62.90;;;;;;5088345;28;20309;-90
2022/03/11 01:06:07;;;;;;;;;;;8.40;63.00;;;;;;5071911;28;19920;-89
2022/03/11 01:08:34;;;;;;;;;;;8.40;63.10;;;;;;5088216;28;19920;-90
2022/03/11 01:11:01;;;;;;;;;;;8.40;63.10;;;;;;5090246;28;19920;-89
2022/03/11 01:13:27;;;;;;;;;;;8.40;63.20;;;;;;5090274;28;20435;-89
2022/03/11 01:15:54;;;;;;;;;;;8.40;63.30;;;;;;5088997;28;19920;-89
2022/03/11 01:18:21;;;;;;;;;;;8.40;63.40;;;;;;5090625;28;20455;-89
2022/03/11 01:20:48;;;;;;;;;;;8.40;63.50;;;;;;5091283;28;19966;-89
2022/03/11 01:23:15;;;;;;;;;;;8.30;63.60;;;;;;5090141;28;19927;-90
2022/03/11 01:25:42;;;;;;;;;;;8.30;63.70;;;;;;5089855;28;19927;-90
2022/03/11 01:28:09;;;;;;;;;;;8.30;63.70;;;;;;5090150;28;20297;-89
2022/03/11 01:30:36;;;;;;;;;;;8.30;63.80;;;;;;5090316;28;19920;-89
2022/03/11 01:33:03;;;;;;;;;;;8.20;63.80;;;;;;5090355;28;19924;-90
2022/03/11 01:35:30;;;;;;;;;;;8.20;63.90;;;;;;5091123;28;19923;-90
2022/03/11 01:37:57;;;;;;;;;;;8.20;63.90;;;;;;5090042;28;19927;-90
2022/03/11 01:40:24;;;;;;;;;;;8.10;63.90;;;;;;5092949;28;19920;-88
2022/03/11 01:42:51;;;;;;;;;;;8.10;64.00;;;;;;5093869;28;19927;-89
2022/03/11 01:45:18;;;;;;;;;;;8.10;64.10;;;;;;5092643;28;19974;-89
2022/03/11 01:47:45;;;;;;;;;;;8.00;64.10;;;;;;5095246;28;19973;-89
2022/03/11 01:50:12;;;;;;;;;;;8.00;64.20;;;;;;5094870;28;19920;-89
2022/03/11 01:52:38;;;;;;;;;;;8.00;64.30;;;;;;5093706;28;19920;-89
2022/03/11 01:55:05;;;;;;;;;;;8.00;64.40;;;;;;5093266;28;20420;-89
2022/03/11 01:57:35;;;;;;;;;;;7.90;64.40;;;;;;5093678;28;19927;-90
2022/03/11 02:00:06;;;;;;;;;;;7.90;64.50;;;;;;5093191;28;19920;-89
2022/03/11 02:02:33;;;;;;;;;;;7.90;64.50;;;;;;5095701;28;20378;-89
2022/03/11 02:05:00;;;;;;;;;;;7.90;64.60;;;;;;5093511;28;20394;-89
2022/03/11 02:07:28;;;;;;;;;;;7.90;64.80;;;;;;5093377;28;19926;-89
2022/03/11 02:09:55;;;;;;;;;;;7.90;64.80;;;;;;5092963;28;20378;-89
2022/03/11 02:12:32;;;;;;;;;;;7.80;64.90;;;;;;5093517;28;20403;-89
2022/03/11 02:15:03;;;;;;;;;;;7.80;65.00;;;;;;5093351;28;20007;-90
2022/03/11 02:17:30;;;;;;;;;;;7.80;65.10;;;;;;5095437;28;20294;-89
2022/03/11 02:19:57;;;;;;;;;;;7.70;65.10;;;;;;5093014;28;19920;-89
2022/03/11 02:22:24;;;;;;;;;;;7.70;65.20;;;;;;5093220;28;19920;-90
2022/03/11 02:24:52;;;;;;;;;;;7.70;65.30;;;;;;5091507;28;19920;-90
2022/03/11 02:27:19;;;;;;;;;;;7.70;65.40;;;;;;5092882;28;20401;-88
2022/03/11 02:29:46;;;;;;;;;;;7.70;65.40;;;;;;5094239;28;19927;-89
2022/03/11 02:32:13;;;;;;;;;;;7.70;65.50;;;;;;5094340;28;20373;-89
2022/03/11 02:34:40;;;;;;;;;;;7.60;65.60;;;;;;5092874;28;20378;-90
2022/03/11 02:37:09;;;;;;;;;;;7.60;65.70;;;;;;5092569;28;19923;-89
2022/03/11 02:39:35;;;;;;;;;;;7.60;65.80;;;;;;5091417;28;19935;-90
2022/03/11 02:42:04;;;;;;;;;;;7.60;65.90;;;;;;5092839;28;19927;-89
2022/03/11 02:44:31;;;;;;;;;;;7.50;66.00;;;;;;5094944;28;19929;-89
2022/03/11 02:46:59;;;;;;;;;;;7.50;66.10;;;;;;5091642;28;19920;-89
2022/03/11 02:49:27;;;;;;;;;;;7.50;66.20;;;;;;5092718;28;19920;-89
2022/03/11 02:51:56;;;;;;;;;;;7.50;66.30;;;;;;5091432;28;19923;-90
2022/03/11 02:54:24;;;;;;;;;;;7.50;66.40;;;;;;5092658;28;19920;-90
2022/03/11 02:56:51;;;;;;;;;;;7.50;66.50;;;;;;5092986;28;19952;-89
2022/03/11 02:59:18;;;;;;;;;;;7.50;66.60;;;;;;5094430;28;19927;-89
2022/03/11 03:01:45;;;;;;;;;;;7.40;66.60;;;;;;5092287;28;19924;-89
2022/03/11 03:04:12;;;;;;;;;;;7.50;66.70;;;;;;5091070;28;19973;-89
2022/03/11 03:06:39;;;;;;;;;;;7.40;66.80;;;;;;5091982;28;19981;-88
2022/03/11 03:09:06;;;;;;;;;;;7.40;66.90;;;;;;5091122;28;19927;-90
2022/03/11 03:11:33;;;;;;;;;;;7.40;66.90;;;;;;5094339;28;19920;-90
2022/03/11 03:13:59;;;;;;;;;;;7.40;67.00;;;;;;5092066;28;19950;-89
2022/03/11 03:16:26;;;;;;;;;;;7.40;67.10;;;;;;5090837;28;19927;-88
2022/03/11 03:18:53;;;;;;;;;;;7.40;67.20;;;;;;5090751;28;19955;-89
2022/03/11 03:21:21;;;;;;;;;;;7.40;67.20;;;;;;5091685;28;19920;-90
2022/03/11 03:23:48;;;;;;;;;;;7.40;67.30;;;;;;5091589;28;19920;-88
2022/03/11 03:26:15;;;;;;;;;;;7.40;67.40;;;;;;5093171;28;20327;-90
2022/03/11 03:28:42;;;;;;;;;;;7.40;67.40;;;;;;5091758;28;19920;-89
2022/03/11 03:31:09;;;;;;;;;;;7.40;67.50;;;;;;5091732;28;19927;-89
2022/03/11 03:33:36;;;;;;;;;;;7.40;67.50;;;;;;5091837;28;19955;-88
2022/03/11 03:36:03;;;;;;;;;;;7.40;67.50;;;;;;5091447;28;19924;-89
2022/03/11 03:38:29;;;;;;;;;;;7.40;67.60;;;;;;5093848;28;20413;-88
2022/03/11 03:40:56;;;;;;;;;;;7.40;67.60;;;;;;5091589;28;19923;-89
2022/03/11 03:43:23;;;;;;;;;;;7.40;67.60;;;;;;5090240;28;19928;-88
2022/03/11 03:45:50;;;;;;;;;;;7.40;67.70;;;;;;5091597;28;19920;-89
2022/03/11 03:48:17;;;;;;;;;;;7.40;67.70;;;;;;5091577;28;19927;-89
2022/03/11 03:50:43;;;;;;;;;;;7.40;67.80;;;;;;5092524;28;20378;-89
2022/03/11 03:53:10;;;;;;;;;;;7.40;67.80;;;;;;5092217;28;19927;-90
2022/03/11 03:55:37;;;;;;;;;;;7.40;67.80;;;;;;5091475;28;19924;-88
2022/03/11 03:58:04;;;;;;;;;;;7.40;67.90;;;;;;5089829;28;19920;-89
2022/03/11 04:00:30;;;;;;;;;;;7.30;67.90;;;;;;5091488;28;19927;-89
2022/03/11 04:02:57;;;;;;;;;;;7.30;67.90;;;;;;5091249;28;19970;-89
2022/03/11 04:05:25;;;;;;;;;;;7.30;68.00;;;;;;5093014;28;20381;-88
2022/03/11 04:07:51;;;;;;;;;;;7.40;68.00;;;;;;5091243;28;19920;-89
2022/03/11 04:10:18;;;;;;;;;;;7.30;68.00;;;;;;5091373;28;19989;-88
2022/03/11 04:12:46;;;;;;;;;;;7.30;68.00;;;;;;5091044;28;19931;-89
2022/03/11 04:15:13;;;;;;;;;;;7.30;68.10;;;;;;5091227;28;20391;-89
2022/03/11 04:17:40;;;;;;;;;;;7.30;68.10;;;;;;5092909;28;19920;-89
2022/03/11 04:20:07;;;;;;;;;;;7.30;68.10;;;;;;5088450;28;19920;-89
2022/03/11 04:22:39;;;;;;;;;;;7.30;68.10;;;;;;5089668;28;19927;-87
2022/03/11 04:25:06;;;;;;;;;;;7.30;68.10;;;;;;5090812;28;19977;-89
2022/03/11 04:27:33;;;;;;;;;;;7.20;68.10;;;;;;5090806;28;19923;-89
2022/03/11 04:30:00;;;;;;;;;;;7.30;68.10;;;;;;5090991;28;19928;-89
2022/03/11 04:32:27;;;;;;;;;;;7.30;68.10;;;;;;5092982;28;19920;-88
2022/03/11 04:34:53;;;;;;;;;;;7.20;68.10;;;;;;5090462;28;19931;-89
2022/03/11 04:37:20;;;;;;;;;;;7.20;68.10;;;;;;5088129;28;20351;-89
2022/03/11 04:39:47;;;;;;;;;;;7.20;68.10;;;;;;5090684;28;19920;-89
2022/03/11 04:42:14;;;;;;;;;;;7.20;68.10;;;;;;5089339;28;19932;-89
2022/03/11 04:44:40;;;;;;;;;;;7.20;68.10;;;;;;5092293;28;19920;-89
2022/03/11 04:47:07;;;;;;;;;;;7.20;68.10;;;;;;5088727;28;19920;-89
2022/03/11 04:49:34;;;;;;;;;;;7.20;68.20;;;;;;5090163;28;19924;-89
2022/03/11 04:52:01;;;;;;;;;;;7.20;68.20;;;;;;5090551;28;19927;-89
2022/03/11 04:54:28;;;;;;;;;;;7.10;68.20;;;;;;5090645;28;19924;-89
2022/03/11 04:56:54;;;;;;;;;;;7.10;68.20;;;;;;5090610;28;19927;-89
2022/03/11 04:59:21;;;;;;;;;;;7.10;68.20;;;;;;5092788;28;19924;-88
2022/03/11 05:01:48;;;;;;;;;;;7.10;68.20;;;;;;5089142;28;20266;-88
2022/03/11 05:04:15;;;;;;;;;;;7.10;68.30;;;;;;5090118;28;20023;-88
2022/03/11 05:06:42;;;;;;;;;;;7.10;68.30;;;;;;5090370;28;19923;-88
2022/03/11 05:09:09;;;;;;;;;;;7.00;68.20;;;;;;5090677;28;19982;-88
2022/03/11 05:11:36;;;;;;;;;;;7.00;68.30;;;;;;5088334;28;19934;-89
2022/03/11 05:14:03;;;;;;;;;;;7.00;68.30;;;;;;5091795;28;19920;-88
2022/03/11 05:16:30;;;;;;;;;;;7.00;68.20;;;;;;5091422;28;20267;-89
2022/03/11 05:18:57;;;;;;;;;;;7.00;68.30;;;;;;5094346;28;20271;-89
2022/03/11 05:21:24;;;;;;;;;;;7.00;68.30;;;;;;5094430;28;19973;-89
2022/03/11 05:23:51;;;;;;;;;;;6.90;68.30;;;;;;5093719;28;20381;-89
2022/03/11 05:26:28;;;;;;;;;;;6.90;68.30;;;;;;5095846;28;19927;-89
2022/03/11 05:28:57;;;;;;;;;;;6.90;68.30;;;;;;5094156;28;19998;-89
2022/03/11 05:31:25;;;;;;;;;;;6.90;68.30;;;;;;5098768;28;19920;-89
2022/03/11 05:33:52;;;;;;;;;;;6.90;68.30;;;;;;5098166;28;19920;-88
2022/03/11 05:36:20;;;;;;;;;;;6.90;68.30;;;;;;5093957;28;19924;-88
2022/03/11 05:38:46;;;;;;;;;;;6.90;68.40;;;;;;5094844;28;19931;-89
2022/03/11 05:41:13;;;;;;;;;;;6.90;68.40;;;;;;5093493;28;19920;-88
2022/03/11 05:43:40;;;;;;;;;;;6.90;68.50;;;;;;5093652;28;19984;-89
2022/03/11 05:46:07;;;;;;;;;;;6.90;68.50;;;;;;5093253;28;19968;-89
2022/03/11 05:48:34;;;;;;;;;;;6.80;68.60;;;;;;5093601;28;19920;-87
2022/03/11 05:51:06;;;;;;;;;;;6.80;68.60;;;;;;5093615;28;19935;-89
2022/03/11 05:53:33;;;;;;;;;;;6.80;68.70;;;;;;5095476;28;19920;-90
2022/03/11 05:55:59;;;;;;;;;;;6.80;68.80;;;;;;5091516;28;19927;-89
2022/03/11 05:58:26;;;;;;;;;;;6.70;68.80;;;;;;5092591;28;19924;-89
2022/03/11 06:00:53;;;;;;;;;;;6.70;68.90;;;;;;5092010;28;19928;-90
2022/03/11 06:03:20;;;;;;;;;;;6.70;69.00;;;;;;5093587;28;19919;-89
2022/03/11 06:05:48;;;;;;;;;;;6.70;69.10;;;;;;5094491;28;19959;-89
2022/03/11 06:08:15;;;;;;;;;;;6.60;69.20;;;;;;5094949;28;19928;-89
2022/03/11 06:10:42;;;;;;;;;;;6.70;69.30;;;;;;5093307;28;19927;-89
2022/03/11 06:13:09;;;;;;;;;;;6.60;69.30;;;;;;5093379;28;19920;-89
2022/03/11 06:15:36;;;;;;;;;;;6.60;69.40;;;;;;5092924;28;19920;-89
2022/03/11 06:18:03;;;;;;;;;;;6.60;69.40;;;;;;5093061;28;19924;-90
2022/03/11 06:20:32;;;;;;;;;;;6.60;69.50;;;;;;5094697;28;19927;-90
2022/03/11 06:23:00;;;;;;;;;;;6.60;69.50;;;;;;5093239;28;20003;-89
2022/03/11 06:25:27;;;;;;;;;;;6.60;69.60;;;;;;5091849;28;19920;-90
2022/03/11 06:27:54;;;;;;;;;;;6.50;69.60;;;;;;5092913;28;19920;-90
2022/03/11 06:30:21;;;;;;;;;;;6.60;69.70;;;;;;5095165;28;19927;-90
2022/03/11 06:32:48;;;;;;;;;;;6.50;69.80;;;;;;5092272;28;20001;-90
2022/03/11 06:35:17;;;;;;;;;;;6.50;69.90;;;;;;5092511;28;19928;-89
2022/03/11 06:37:44;;;;;;;;;;;6.50;69.90;;;;;;5092566;28;19920;-91
2022/03/11 06:40:12;;;;;;;;;;;6.50;70.00;;;;;;5091479;28;19920;-89
2022/03/11 06:42:40;;;;;;;;;;;6.50;70.10;;;;;;5092683;28;19920;-89
2022/03/11 06:45:08;;;;;;;;;;;6.50;70.30;;;;;;5073519;28;20275;-90
2022/03/11 06:47:35;;;;;;;;;;;6.50;70.50;;;;;;5094701;28;19931;-89
2022/03/11 06:50:02;;;;;;;;;;;6.50;70.70;;;;;;5092362;28;19928;-89
2022/03/11 06:52:30;;;;;;;;;;;6.50;70.90;;;;;;5091365;28;19943;-90
2022/03/11 06:54:57;;;;;;;;;;;6.50;71.00;;;;;;5092350;28;19920;-91
2022/03/11 06:57:23;;;;;;;;;;;6.50;71.20;;;;;;5091217;28;19928;-90
2022/03/11 06:59:50;;;;;;;;;;;6.50;71.40;;;;;;5093516;28;19920;-90
2022/03/11 07:02:18;;;;;;;;;;;6.50;71.60;;;;;;5111068;27;19935;-91
2022/03/11 07:04:50;;;;;;;;;;;6.60;71.70;;;;;;5088686;28;19920;-91
2022/03/11 07:07:17;;;;;;;;;;;6.50;71.90;;;;;;5092469;28;20344;-90
2022/03/11 07:09:44;;;;;;;;;;;6.60;72.10;;;;;;5092156;28;20451;-89
2022/03/11 07:12:10;;;;;;;;;;;6.60;72.20;;;;;;5088962;28;19920;-89
2022/03/11 07:14:37;;;;;;;;;;;6.60;72.40;;;;;;5091043;28;19920;-89
2022/03/11 07:17:05;;;;;;;;;;;6.60;72.50;;;;;;5088258;28;20305;-89
2022/03/11 07:19:33;;;;;;;;;;;6.70;72.70;;;;;;5093730;28;19927;-89
2022/03/11 07:22:01;;;;;;;;;;;6.70;72.80;;;;;;5091786;28;19927;-89
2022/03/11 07:24:28;;;;;;;;;;;6.70;72.90;;;;;;5091515;28;19943;-89
2022/03/11 07:26:55;;;;;;;;;;;6.70;73.10;;;;;;5091353;28;19943;-89
2022/03/11 07:29:22;;;;;;;;;;;6.70;73.20;;;;;;5093699;28;19927;-87
2022/03/11 07:31:49;;;;;;;;;;;6.80;73.30;;;;;;5090472;28;20454;-90
2022/03/11 07:34:16;;;;;;;;;;;6.80;73.40;;;;;;5091677;28;19927;-89
2022/03/11 07:36:43;;;;;;;;;;;6.80;73.50;;;;;;5090809;28;19919;-88
2022/03/11 07:39:10;;;;;;;;;;;6.90;73.60;;;;;;5091867;28;19920;-88
2022/03/11 07:41:37;;;;;;;;;;;6.90;73.70;;;;;;5093095;28;19920;-89
2022/03/11 07:44:04;;;;;;;;;;;6.90;73.80;;;;;;5088808;28;19920;-88
2022/03/11 07:46:42;;;;;;;;;;;7.00;73.90;;;;;;5090919;28;19926;-88
2022/03/11 07:49:09;;;;;;;;;;;7.00;74.00;;;;;;5091323;28;20428;-88
2022/03/11 07:51:36;;;;;;;;;;;7.10;74.10;;;;;;5089829;28;19928;-88
2022/03/11 07:54:03;;;;;;;;;;;7.10;74.20;;;;;;5090833;28;19920;-89
2022/03/11 07:56:30;;;;;;;;;;;7.20;74.20;;;;;;5092744;28;19924;-88
2022/03/11 07:58:57;;;;;;;;;;;7.20;74.30;;;;;;5089918;28;19927;-89
2022/03/11 08:01:24;;;;;;;;;;;7.30;74.40;;;;;;5090608;28;19994;-89
2022/03/11 08:03:52;;;;;;;;;;;7.40;74.40;;;;;;5090624;28;19920;-89
2022/03/11 08:06:19;;;;;;;;;;;7.40;74.40;;;;;;5090917;28;19936;-88
2022/03/11 08:08:45;;;;;;;;;;;7.50;74.50;;;;;;5104616;28;19931;-89
2022/03/11 08:11:14;;;;;;;;;;;7.50;74.50;;;;;;5091687;28;19982;-88
2022/03/11 08:13:41;;;;;;;;;;;7.60;74.50;;;;;;5089641;28;20353;-90
2022/03/11 08:16:11;;;;;;;;;;;7.70;74.40;;;;;;5089045;28;19920;-89
2022/03/11 08:18:39;;;;;;;;;;;7.70;74.40;;;;;;5090647;28;19968;-88
2022/03/11 08:21:06;;;;;;;;;;;7.80;74.40;;;;;;5090723;28;19935;-88
2022/03/11 08:23:33;;;;;;;;;;;7.90;74.40;;;;;;5091253;28;20309;-88
2022/03/11 08:26:00;;;;;;;;;;;7.90;74.40;;;;;;5069825;28;20440;-88
2022/03/11 08:28:27;;;;;;;;;;;8.00;74.40;;;;;;5085502;28;19927;-88
2022/03/11 08:30:54;;;;;;;;;;;8.20;74.40;;;;;;5089053;28;19923;-89
2022/03/11 08:33:23;;;;;;;;;;;8.20;74.30;;;;;;5090662;28;19920;-89
2022/03/11 08:36:10;;;;;;;;;;;8.30;74.30;;;;;;5074762;28;20393;-88
2022/03/11 08:38:39;;;;;;;;;;;8.40;74.20;;;;;;5091028;28;19923;-88
2022/03/11 08:41:07;;;;;;;;;;;8.50;74.10;;;;;;5090536;28;19969;-89
2022/03/11 08:43:38;;;;;;;;;;;8.50;74.00;;;;;;5090354;28;20324;-89
2022/03/11 08:46:05;;;;;;;;;;;8.70;73.90;;;;;;5089983;28;19965;-89
2022/03/11 08:48:32;;;;;;;;;;;8.80;73.70;;;;;;5089864;28;19920;-87
2022/03/11 08:50:59;;;;;;;;;;;8.90;73.60;;;;;;5089224;28;19928;-88
2022/03/11 08:53:26;;;;;;;;;;;8.90;73.50;;;;;;5092115;28;19943;-88
2022/03/11 08:55:53;;;;;;;;;;;9.00;73.30;;;;;;5088447;28;20297;-89
2022/03/11 08:58:20;;;;;;;;;;;9.20;73.20;;;;;;5089112;28;20306;-89
2022/03/11 09:00:47;;;;;;;;;;;9.30;73.10;;;;;;5089729;28;19927;-89
2022/03/11 09:03:14;;;;;;;;;;;9.40;73.00;;;;;;5089113;28;19921;-88
2022/03/11 09:05:40;;;;;;;;;;;9.40;72.80;;;;;;5091869;28;19920;-88
2022/03/11 09:08:08;;;;;;;;;;;9.50;72.60;;;;;;5095802;28;19926;-88
2022/03/11 09:10:35;;;;;;;;;;;9.60;72.40;;;;;;5094033;28;19924;-89
2022/03/11 09:13:02;;;;;;;;;;;9.70;72.10;;;;;;5088833;28;19920;-89
2022/03/11 09:15:29;;;;;;;;;;;9.80;71.90;;;;;;5089532;28;20340;-89
2022/03/11 09:17:56;;;;;;;;;;;9.90;71.70;;;;;;5089989;28;20496;-88
2022/03/11 09:20:23;;;;;;;;;;;9.90;71.50;;;;;;5092157;28;19924;-88
2022/03/11 09:22:57;;;;;;;;;;;10.00;71.30;;;;;;5089310;28;20302;-89
2022/03/11 09:25:24;;;;;;;;;;;10.10;71.10;;;;;;5089999;28;19927;-88
2022/03/11 09:27:52;;;;;;;;;;;10.20;70.90;;;;;;5089715;28;19927;-89
2022/03/11 09:30:18;;;;;;;;;;;10.20;70.70;;;;;;5089844;28;19965;-89
2022/03/11 09:32:45;;;;;;;;;;;10.30;70.40;;;;;;5090845;28;19951;-88
2022/03/11 09:35:12;;;;;;;;;;;10.40;70.30;;;;;;5090664;28;20374;-88
2022/03/11 09:37:39;;;;;;;;;;;10.50;70.10;;;;;;5089741;28;20267;-88
2022/03/11 09:40:07;;;;;;;;;;;10.50;69.90;;;;;;5090247;28;19927;-88
2022/03/11 09:42:34;;;;;;;;;;;10.60;69.70;;;;;;5090235;28;19920;-86
2022/03/11 09:45:01;;;;;;;;;;;10.60;69.60;;;;;;5090125;28;19932;-85
2022/03/11 09:47:27;;;;;;;;;;;10.70;69.50;;;;;;5092290;28;19920;-86
2022/03/11 09:49:55;;;;;;;;;;;10.80;69.40;;;;;;5088659;28;19920;-86
2022/03/11 09:52:23;;;;;;;;;;;10.90;69.20;;;;;;5088503;28;20385;-86
2022/03/11 09:54:50;;;;;;;;;;;10.90;69.00;;;;;;5089956;28;19971;-86
2022/03/11 09:57:18;;;;;;;;;;;10.90;68.80;;;;;;5088986;28;20401;-86
2022/03/11 09:59:45;;;;;;;;;;;11.00;68.60;;;;;;5092261;28;20423;-86
2022/03/11 10:02:23;;;;;;;;;;;11.10;68.40;;;;;;5095505;28;19920;-86
2022/03/11 10:04:53;;;;;;;;;;;11.10;68.30;;;;;;5093337;28;19924;-86
2022/03/11 10:07:40;;;;;;;;;;;11.20;68.20;;;;;;5093168;28;19970;-86
2022/03/11 10:10:18;;;;;;;;;;;11.30;68.10;;;;;;5093379;28;20374;-86
2022/03/11 10:13:04;;;;;;;;;;;11.40;67.90;;;;;;5093339;28;19981;-87
2022/03/11 10:15:31;;;;;;;;;;;11.40;67.70;;;;;;5093527;28;19919;-87
2022/03/11 10:18:02;;;;;;;;;;;11.40;67.60;;;;;;5093429;28;19965;-86
2022/03/11 10:20:30;;;;;;;;;;;11.50;67.40;;;;;;5095372;28;19920;-87
2022/03/11 10:22:57;;;;;;;;;;;11.60;67.30;;;;;;5092789;28;20347;-86
2022/03/11 10:25:27;;;;;;;;;;;11.60;67.30;;;;;;5091940;28;19920;-87
2022/03/11 10:27:55;;;;;;;;;;;11.70;67.20;;;;;;5091520;28;19924;-86
2022/03/11 10:30:22;;;;;;;;;;;11.70;67.20;;;;;;5093227;28;19927;-86
2022/03/11 10:32:50;;;;;;;;;;;11.80;67.10;;;;;;5093972;28;19924;-86
2022/03/11 10:35:20;;;;;;;;;;;11.90;67.00;;;;;;5094595;28;19927;-86
2022/03/11 10:38:02;;;;;;;;;;;11.90;66.90;;;;;;5092493;28;19924;-86
2022/03/11 10:40:30;;;;;;;;;;;11.90;66.80;;;;;;5092888;28;19920;-86
2022/03/11 10:43:14;;;;;;;;;;;11.90;66.80;;;;;;5092674;28;19927;-86
2022/03/11 10:45:50;;;;;;;;;;;12.00;66.70;;;;;;5092866;28;19919;-86
2022/03/11 10:48:18;;;;;;;;;;;12.00;66.60;;;;;;5078039;28;20388;-86
2022/03/11 10:50:45;;;;;;;;;;;12.10;66.50;;;;;;5093724;28;20098;-86
2022/03/11 10:53:12;;;;;;;;;;;12.20;66.40;;;;;;5091519;28;19919;-86
2022/03/11 10:55:41;;;;;;;;;;;12.20;66.30;;;;;;5092491;28;19924;-86
2022/03/11 10:58:08;;;;;;;;;;;12.20;66.30;;;;;;5092573;28;19973;-87
2022/03/11 11:00:35;;;;;;;;;;;12.30;66.30;;;;;;5092504;28;19935;-87
2022/03/11 11:03:03;;;;;;;;;;;12.30;66.20;;;;;;5092409;28;19928;-86
2022/03/11 11:05:31;;;;;;;;;;;12.40;66.10;;;;;;5094198;28;19924;-87
2022/03/11 11:07:59;;;;;;;;;;;12.40;66.00;;;;;;5090819;28;19920;-87
2022/03/11 11:10:27;;;;;;;;;;;12.50;65.90;;;;;;5092295;28;19926;-87
2022/03/11 11:12:54;;;;;;;;;;;12.50;65.80;;;;;;5091611;28;19920;-89
2022/03/11 11:15:21;;;;;;;;;;;12.50;65.60;;;;;;5092209;28;20400;-88
2022/03/11 11:17:49;;;;;;;;;;;12.50;65.40;;;;;;5088817;28;19924;-88
2022/03/11 11:20:19;;;;;;;;;;;12.60;65.30;;;;;;5090911;28;19920;-88
2022/03/11 11:22:47;;;;;;;;;;;12.60;65.20;;;;;;5101484;28;19920;-88
2022/03/11 11:25:16;;;;;;;;;;;12.60;65.10;;;;;;5098895;28;19973;-87
2022/03/11 11:27:43;;;;;;;;;;;12.70;65.20;;;;;;5091482;28;19924;-88
2022/03/11 11:30:10;;;;;;;;;;;12.70;65.20;;;;;;5090227;28;19931;-88
2022/03/11 11:32:40;;;;;;;;;;;12.70;65.10;;;;;;5092610;28;19920;-89
2022/03/11 11:35:26;;;;;;;;;;;12.70;65.10;;;;;;5103727;28;19923;-88
2022/03/11 11:37:55;;;;;;;;;;;12.80;65.10;;;;;;5091540;28;19920;-88
2022/03/11 11:40:28;;;;;;;;;;;12.80;65.10;;;;;;5091245;28;20435;-89
2022/03/11 11:43:10;;;;;;;;;;;12.90;65.10;;;;;;5091442;28;19923;-87
2022/03/11 11:45:41;;;;;;;;;;;12.90;65.10;;;;;;5089645;28;19927;-87
2022/03/11 11:48:31;;;;;;;;;;;12.90;65.20;;;;;;5075487;28;19926;-88
2022/03/11 11:50:58;;;;;;;;;;;13.00;65.30;;;;;;5091431;28;19927;-88
2022/03/11 11:53:43;;;;;;;;;;;13.00;65.20;;;;;;5092833;28;19919;-88
2022/03/11 11:56:29;;;;;;;;;;;13.10;65.00;;;;;;5090616;28;19928;-88
2022/03/11 11:58:57;;;;;;;;;;;13.10;64.80;;;;;;5090529;28;20294;-88
2022/03/11 12:01:38;;;;;;;;;;;13.20;64.70;;;;;;5091394;28;19943;-89
2022/03/11 12:04:21;;;;;;;;;;;13.20;64.60;;;;;;5088964;28;20412;-88
2022/03/11 12:06:59;;;;;;;;;;;13.20;64.50;;;;;;5090472;28;19956;-89
2022/03/11 12:09:38;;;;;;;;;;;13.20;64.40;;;;;;5089685;28;19920;-88
2022/03/11 12:12:29;;;;;;;;;;;13.30;64.30;;;;;;5102735;28;19920;-88
2022/03/11 12:14:59;;;;;;;;;;;13.30;64.20;;;;;;5087750;28;19928;-88
2022/03/11 12:17:36;;;;;;;;;;;13.30;64.20;;;;;;5092314;28;19971;-88
2022/03/11 12:20:21;;;;;;;;;;;13.30;64.10;;;;;;5089301;28;19973;-89
2022/03/11 12:22:52;;;;;;;;;;;13.30;64.00;;;;;;5089652;28;19924;-89
2022/03/11 12:25:23;;;;;;;;;;;13.40;63.90;;;;;;5088735;28;19919;-87
2022/03/11 12:28:09;;;;;;;;;;;13.30;63.80;;;;;;5090356;28;20374;-88
2022/03/11 12:30:39;;;;;;;;;;;13.30;63.70;;;;;;5090477;28;20041;-88
2022/03/11 12:33:07;;;;;;;;;;;13.40;63.60;;;;;;5090312;28;19920;-88
2022/03/11 12:35:35;;;;;;;;;;;13.30;63.90;;;;;;5091320;28;19928;-89
2022/03/11 12:38:03;;;;;;;;;;;13.30;64.40;;;;;;5090379;28;20393;-88
2022/03/11 12:40:31;;;;;;;;;;;13.20;64.90;;;;;;5090430;28;20279;-89
2022/03/11 12:43:02;;;;;;;;;;;13.20;65.60;;;;;;5088870;28;19924;-89
2022/03/11 12:45:30;;;;;;;;;;;13.20;66.10;;;;;;5090518;28;19919;-89
2022/03/11 12:47:57;;;;;;;;;;;13.20;66.60;;;;;;5090061;28;20393;-90
2022/03/11 12:50:23;;;;;;;;;;;13.10;67.00;;;;;;5092186;28;19920;-90
2022/03/11 12:52:50;;;;;;;;;;;13.00;67.50;;;;;;5089883;28;19995;-90
2022/03/11 12:55:22;;;;;;;;;;;12.90;67.90;;;;;;5090151;28;19924;-91
2022/03/11 12:57:50;;;;;;;;;;;12.90;68.30;;;;;;5090115;28;19942;-92
2022/03/11 13:00:19;;;;;;;;;;;12.80;68.70;;;;;;5090380;28;19927;-91
2022/03/11 13:02:47;;;;;;;;;;;12.70;69.20;;;;;;5090509;28;20295;-90
2022/03/11 13:05:19;;;;;;;;;;;12.70;69.60;;;;;;5089725;28;19991;-91
2022/03/11 13:07:46;;;;;;;;;;;12.60;70.10;;;;;;5090062;28;19927;-92
2022/03/11 13:10:14;;;;;;;;;;;12.50;70.60;;;;;;5090253;28;19920;-91
2022/03/11 13:12:40;;;;;;;;;;;12.40;71.00;;;;;;5101486;28;20336;-92
2022/03/11 13:15:09;;;;;;;;;;;12.40;71.40;;;;;;5073059;28;19953;-91
2022/03/11 13:17:59;;;;;;;;;;;12.30;71.80;;;;;;5087944;28;19920;-91
2022/03/11 13:20:40;;;;;;;;;;;12.20;72.30;;;;;;5090669;28;19927;-90
2022/03/11 13:23:13;;;;;;;;;;;12.20;72.70;;;;;;5089210;28;20408;-89
2022/03/11 13:25:41;;;;;;;;;;;12.10;73.10;;;;;;5089939;28;19920;-89
2022/03/11 13:28:09;;;;;;;;;;;12.00;73.50;;;;;;5087061;28;19920;-90
2022/03/11 13:30:37;;;;;;;;;;;12.00;73.80;;;;;;5089609;28;20396;-90
2022/03/11 13:33:16;;;;;;;;;;;11.90;74.10;;;;;;5090046;28;19944;-90
2022/03/11 13:35:44;;;;;;;;;;;11.90;74.30;;;;;;5090334;28;19924;-90
2022/03/11 13:38:30;;;;;;;;;;;11.90;74.70;;;;;;5093576;28;19920;-90
2022/03/11 13:40:57;;;;;;;;;;;11.80;75.00;;;;;;5093791;28;19924;-90
2022/03/11 13:43:23;;;;;;;;;;;11.80;75.20;;;;;;5091876;28;20351;-89
2022/03/11 13:45:51;;;;;;;;;;;11.70;75.40;;;;;;5093465;28;19924;-90
2022/03/11 13:48:18;;;;;;;;;;;11.70;75.60;;;;;;5090956;28;19955;-90
2022/03/11 13:50:45;;;;;;;;;;;11.70;75.70;;;;;;5094437;28;20381;-90
2022/03/11 13:53:11;;;;;;;;;;;11.70;75.90;;;;;;5092389;28;19970;-89
2022/03/11 13:55:38;;;;;;;;;;;11.60;76.10;;;;;;5093370;28;19920;-89
2022/03/11 13:58:32;;;;;;;;;;;11.60;76.30;;;;;;5091800;28;19920;-90
2022/03/11 14:01:09;;;;;;;;;;;11.60;76.50;;;;;;5090538;28;19924;-89
2022/03/11 14:03:43;;;;;;;;;;;11.50;76.80;;;;;;5093378;28;20418;-89
2022/03/11 14:06:10;;;;;;;;;;;11.50;77.00;;;;;;5075865;28;20340;-89
2022/03/11 14:08:56;;;;;;;;;;;11.50;77.00;;;;;;5093040;28;19941;-92
2022/03/11 14:11:24;;;;;;;;;;;11.50;77.10;;;;;;5104951;28;19920;-90
2022/03/11 14:13:50;;;;;;;;;;;11.50;77.20;;;;;;5094366;28;19994;-90
2022/03/11 14:16:25;;;;;;;;;;;11.50;77.30;;;;;;5091748;28;19924;-90
2022/03/11 14:18:52;;;;;;;;;;;11.50;77.40;;;;;;5093053;28;20301;-89
2022/03/11 14:21:19;;;;;;;;;;;11.50;77.40;;;;;;5091214;28;19920;-89
2022/03/11 14:23:46;;;;;;;;;;;11.50;77.50;;;;;;5094107;28;19924;-89
2022/03/11 14:26:13;;;;;;;;;;;11.50;77.50;;;;;;5093855;28;19920;-90
2022/03/11 14:28:40;;;;;;;;;;;11.50;77.50;;;;;;5091856;28;19920;-91
2022/03/11 14:31:07;;;;;;;;;;;11.50;77.50;;;;;;5092805;28;19920;-92
2022/03/11 14:33:34;;;;;;;;;;;11.50;77.50;;;;;;5092879;28;19927;-91
2022/03/11 14:36:01;;;;;;;;;;;11.50;77.60;;;;;;5092291;28;19920;-90